METAR Data
IDs: Format: Raw Decoded Include TAF

Data at: 1726 UTC 22 Sep 2019

METAR for:KSPB (Scappoose Ind Airpar, OR, US)
Text:KSPB 221653Z AUTO 10003KT 10SM -RA OVC005 14/14 A2990 RMK AO2 CIG 003V009 SLP124 P0003 T01440139 $
Temperature: 14.4°C ( 58°F)
Dewpoint: 13.9°C ( 57°F) [RH = 97%]
Pressure (altimeter):29.90 inches Hg (1012.6 mb) [Sea level pressure: 1012.4 mb]
Winds:from the E (100 degrees) at 3 MPH (3 knots; 1.5 m/s)
Visibility:10 or more sm (16+ km)
Ceiling:500 feet AGL
Clouds: overcast cloud deck at 500 feet AGL
Weather:-RA (light rain)
QC Flag:automated observation with no human augmentation; SOME DATA ABOVE MAY BE INACCURATE!!!"$" is an indication the sensor requires maintenance.